createdAt,value
2022-12-19T00:01:54.990Z,-2.63
2022-12-19T00:04:22.384Z,-2.64
2022-12-19T00:06:49.232Z,-2.63
2022-12-19T00:09:16.513Z,-2.63
2022-12-19T00:11:43.385Z,-2.66
2022-12-19T00:14:11.446Z,-2.67
2022-12-19T00:16:38.385Z,-2.71
2022-12-19T00:19:05.935Z,-2.70
2022-12-19T00:21:35.147Z,-2.67
2022-12-19T00:24:06.604Z,-2.67
2022-12-19T00:26:44.049Z,-2.70
2022-12-19T00:29:14.283Z,-2.76
2022-12-19T00:31:41.625Z,-2.74
2022-12-19T00:34:09.244Z,-2.81
2022-12-19T00:36:36.171Z,-2.81
2022-12-19T00:39:08.088Z,-2.74
2022-12-19T00:41:36.544Z,-2.82
2022-12-19T00:44:05.051Z,-2.89
2022-12-19T00:46:32.838Z,-2.90
2022-12-19T00:49:04.174Z,-2.92
2022-12-19T00:51:35.524Z,-2.91
2022-12-19T00:54:03.121Z,-2.85
2022-12-19T00:56:37.097Z,-2.95
2022-12-19T00:59:04.650Z,-2.90
2022-12-19T01:01:34.511Z,-2.93
2022-12-19T01:04:33.446Z,-2.95
2022-12-19T01:06:49.959Z,-2.97
2022-12-19T01:09:18.037Z,-2.90
2022-12-19T01:12:04.122Z,-2.95
2022-12-19T01:14:31.867Z,-3.03
2022-12-19T01:16:59.716Z,-3.07
2022-12-19T01:19:27.252Z,-3.06
2022-12-19T01:21:54.317Z,-3.05
2022-12-19T01:24:21.798Z,-3.00
2022-12-19T01:26:48.764Z,-2.97
2022-12-19T01:29:19.062Z,-3.00
2022-12-19T01:31:46.287Z,-3.08
2022-12-19T01:34:13.808Z,-3.07
2022-12-19T01:36:40.619Z,-3.04
2022-12-19T01:39:07.723Z,-3.08
2022-12-19T01:41:34.630Z,-3.23
2022-12-19T01:44:07.902Z,-3.18
2022-12-19T01:46:37.218Z,-3.19
2022-12-19T01:49:05.308Z,-3.23
2022-12-19T01:51:40.146Z,-3.14
2022-12-19T01:54:09.016Z,-3.14
2022-12-19T01:56:38.552Z,-3.13
2022-12-19T01:59:07.960Z,-3.07
2022-12-19T02:01:35.693Z,-3.07
2022-12-19T02:04:06.943Z,-3.06
2022-12-19T02:06:34.984Z,-3.05
2022-12-19T02:09:02.106Z,-2.97
2022-12-19T02:11:28.939Z,-2.98
2022-12-19T02:13:55.852Z,-2.94
2022-12-19T02:16:25.426Z,-2.88
2022-12-19T02:19:09.294Z,-2.81
2022-12-19T02:21:38.561Z,-2.85
2022-12-19T02:24:23.931Z,-2.83
2022-12-19T02:26:57.185Z,-2.75
2022-12-19T02:29:31.655Z,-2.72
2022-12-19T02:32:11.963Z,-2.79
2022-12-19T02:34:58.249Z,-2.73
2022-12-19T02:37:28.494Z,-2.75
2022-12-19T02:39:58.929Z,-2.71
2022-12-19T02:42:29.296Z,-2.64
2022-12-19T02:45:02.793Z,-2.58
2022-12-19T02:47:31.895Z,-2.57
2022-12-19T02:49:58.759Z,-2.51
2022-12-19T02:52:25.861Z,-2.49
2022-12-19T02:54:56.422Z,-2.49
2022-12-19T02:57:28.550Z,-2.45
2022-12-19T02:59:58.386Z,-2.46
2022-12-19T03:02:39.038Z,-2.42
2022-12-19T03:05:12.076Z,-2.34
2022-12-19T03:07:45.079Z,-2.32
2022-12-19T03:10:30.644Z,-2.30
2022-12-19T03:12:59.033Z,-2.24
2022-12-19T03:15:26.262Z,-2.19
2022-12-19T03:17:56.238Z,-2.17
2022-12-19T03:20:28.813Z,-2.14
2022-12-19T03:22:55.622Z,-2.12
2022-12-19T03:25:23.525Z,-2.07
2022-12-19T03:27:51.853Z,-2.06
2022-12-19T03:30:18.889Z,-2.04
2022-12-19T03:32:46.245Z,-2.03
2022-12-19T03:35:18.625Z,-2.00
2022-12-19T03:37:46.299Z,-2.01
2022-12-19T03:40:15.428Z,-2.07
2022-12-19T03:43:01.383Z,-2.01
2022-12-19T03:45:43.476Z,-2.02
2022-12-19T03:48:25.620Z,-1.92
2022-12-19T03:50:52.712Z,-1.94
2022-12-19T03:53:31.199Z,-1.99
2022-12-19T03:56:00.192Z,-1.99
2022-12-19T03:58:36.712Z,-2.01
2022-12-19T04:01:04.314Z,-1.88
2022-12-19T04:03:31.763Z,-1.89
2022-12-19T04:06:00.560Z,-1.90
2022-12-19T04:08:28.742Z,-1.95
2022-12-19T04:10:57.626Z,-1.94
2022-12-19T04:13:29.622Z,-1.93
2022-12-19T04:15:59.144Z,-1.88
2022-12-19T04:18:26.125Z,-1.81
2022-12-19T04:20:58.363Z,-1.81
2022-12-19T04:23:40.242Z,-1.85
2022-12-19T04:26:07.632Z,-1.79
2022-12-19T04:28:48.484Z,-1.80
2022-12-19T04:31:16.150Z,-1.75
2022-12-19T04:33:43.354Z,-1.75
2022-12-19T04:36:11.002Z,-1.79
2022-12-19T04:38:38.127Z,-1.79
2022-12-19T04:41:05.004Z,-1.75
2022-12-19T04:43:31.804Z,-1.83
2022-12-19T04:45:58.912Z,-1.81
2022-12-19T04:48:26.079Z,-1.81
2022-12-19T04:50:52.891Z,-1.83
2022-12-19T04:53:19.704Z,-1.84
2022-12-19T04:55:46.579Z,-1.88
2022-12-19T04:58:17.621Z,-1.90
2022-12-19T05:00:47.230Z,-1.95
2022-12-19T05:03:14.016Z,-2.01
2022-12-19T05:05:40.820Z,-2.04
2022-12-19T05:08:08.275Z,-2.02
2022-12-19T05:10:36.212Z,-2.12
2022-12-19T05:13:03.293Z,-2.01
2022-12-19T05:15:30.066Z,-1.98
2022-12-19T05:17:57.490Z,-1.98
2022-12-19T05:20:24.325Z,-1.99
2022-12-19T05:22:51.192Z,-1.94
2022-12-19T05:25:18.071Z,-1.83
2022-12-19T05:27:44.880Z,-1.87
2022-12-19T05:30:12.175Z,-1.87
2022-12-19T05:32:39.035Z,-1.91
2022-12-19T05:35:06.070Z,-1.94
2022-12-19T05:37:35.569Z,-1.90
2022-12-19T05:40:02.711Z,-1.91
2022-12-19T05:42:29.525Z,-1.88
2022-12-19T05:44:56.333Z,-1.78
2022-12-19T05:47:23.118Z,-1.72
2022-12-19T05:49:50.203Z,-1.69
2022-12-19T05:52:17.029Z,-1.69
2022-12-19T05:54:44.011Z,-1.71
2022-12-19T05:57:11.287Z,-1.61
2022-12-19T05:59:38.170Z,-1.61
2022-12-19T06:02:05.136Z,-1.59
2022-12-19T06:04:32.094Z,-1.58
2022-12-19T06:06:58.879Z,-1.52
2022-12-19T06:09:25.776Z,-1.49
2022-12-19T06:11:52.634Z,-1.46
2022-12-19T06:14:19.476Z,-1.42
2022-12-19T06:16:46.351Z,-1.37
2022-12-19T06:19:13.162Z,-1.34
2022-12-19T06:21:47.704Z,-1.39
2022-12-19T06:24:15.301Z,-1.34
2022-12-19T06:26:42.133Z,-1.27
2022-12-19T06:29:09.060Z,-1.22
2022-12-19T06:31:35.862Z,-1.22
2022-12-19T06:34:02.744Z,-1.16
2022-12-19T06:36:30.338Z,-1.13
2022-12-19T06:39:00.520Z,-1.19
2022-12-19T06:41:45.945Z,-1.20
2022-12-19T06:44:13.411Z,-1.12
2022-12-19T06:46:40.857Z,-1.12
2022-12-19T06:49:26.566Z,-1.10
2022-12-19T06:51:53.476Z,-1.12
2022-12-19T06:54:20.390Z,-1.11
2022-12-19T06:56:47.369Z,-1.14
2022-12-19T06:59:16.595Z,-1.09
2022-12-19T07:01:58.910Z,-0.99
2022-12-19T07:04:29.779Z,-0.97
2022-12-19T07:06:58.234Z,-0.96
2022-12-19T07:09:28.006Z,-0.85
2022-12-19T07:11:54.924Z,-0.86
2022-12-19T07:14:21.795Z,-0.84
2022-12-19T07:16:49.868Z,-0.78
2022-12-19T07:19:16.855Z,-0.81
2022-12-19T07:21:43.947Z,-0.84
2022-12-19T07:24:11.699Z,-0.77
2022-12-19T07:26:38.537Z,-0.68
2022-12-19T07:29:05.446Z,-0.65
2022-12-19T07:31:33.758Z,-0.68
2022-12-19T07:34:33.182Z,-0.56
2022-12-19T07:40:08.513Z,-0.51
2022-12-19T07:42:35.400Z,-0.51
2022-12-19T07:45:02.552Z,-0.40
2022-12-19T07:47:29.741Z,-0.41
2022-12-19T07:49:56.521Z,-0.33
2022-12-19T07:52:23.368Z,-0.29
2022-12-19T07:54:50.229Z,-0.34
2022-12-19T07:57:18.176Z,-0.28
2022-12-19T07:59:44.959Z,-0.24
2022-12-19T08:02:12.261Z,-0.21
2022-12-19T08:04:39.131Z,-0.11
2022-12-19T08:07:05.906Z,-0.11
2022-12-19T08:09:33.184Z,-0.03
2022-12-19T08:12:00.004Z,-0.02
2022-12-19T08:14:26.807Z,-0.03
2022-12-19T08:17:19.680Z,0.05
2022-12-19T08:19:40.293Z,0.05
2022-12-19T08:22:07.240Z,0.06
2022-12-19T08:24:34.491Z,0.07
2022-12-19T08:27:01.312Z,0.12
2022-12-19T08:29:28.258Z,0.24
2022-12-19T08:31:55.145Z,0.28
2022-12-19T08:34:24.802Z,0.24
2022-12-19T08:36:51.694Z,0.30
2022-12-19T08:39:18.507Z,0.35
2022-12-19T08:41:45.304Z,0.43
2022-12-19T08:44:13.050Z,0.47
2022-12-19T08:46:43.553Z,0.47
2022-12-19T08:49:13.502Z,0.49
2022-12-19T08:51:40.386Z,0.46
2022-12-19T08:54:08.498Z,0.50
2022-12-19T08:56:42.982Z,0.47
2022-12-19T08:59:15.857Z,0.52
2022-12-19T09:01:51.480Z,0.56
2022-12-19T09:05:58.412Z,0.59
2022-12-19T09:07:09.056Z,0.56
2022-12-19T09:09:38.481Z,0.66
2022-12-19T09:12:08.195Z,0.69
2022-12-19T09:14:35.305Z,0.70
2022-12-19T09:17:03.384Z,0.66
2022-12-19T09:19:31.965Z,0.71
2022-12-19T09:21:58.864Z,0.70
2022-12-19T09:24:25.869Z,0.72
2022-12-19T09:26:52.930Z,0.82
2022-12-19T09:29:21.786Z,0.85
2022-12-19T09:31:56.255Z,0.82
2022-12-19T09:34:33.495Z,0.74
2022-12-19T09:37:06.471Z,0.83
2022-12-19T09:39:34.253Z,0.88
2022-12-19T09:42:19.900Z,0.94
2022-12-19T09:45:05.850Z,0.95
2022-12-19T09:47:34.277Z,1.00
2022-12-19T09:50:02.447Z,1.03
2022-12-19T09:52:45.663Z,1.08
2022-12-19T09:55:18.689Z,1.13
2022-12-19T09:57:54.367Z,1.15
2022-12-19T10:00:22.174Z,1.14
2022-12-19T10:02:55.164Z,1.16
2022-12-19T10:06:30.025Z,1.17
2022-12-19T10:08:45.817Z,1.13
2022-12-19T10:12:41.314Z,1.19
2022-12-19T10:14:18.011Z,1.16
2022-12-19T10:17:22.983Z,1.22
2022-12-19T10:20:05.478Z,1.19
2022-12-19T10:22:38.367Z,1.25
2022-12-19T10:25:23.831Z,1.25
2022-12-19T10:27:59.629Z,1.26
2022-12-19T10:30:27.832Z,1.32
2022-12-19T10:33:05.893Z,1.33
2022-12-19T10:35:35.405Z,1.32
2022-12-19T10:38:12.132Z,1.31
2022-12-19T10:40:48.009Z,1.39
2022-12-19T10:43:32.894Z,1.40
2022-12-19T10:46:03.758Z,1.49
2022-12-19T10:48:31.624Z,1.58
2022-12-19T10:51:00.650Z,1.66
2022-12-19T10:53:33.581Z,1.74
2022-12-19T10:56:01.707Z,1.80
2022-12-19T10:58:33.395Z,1.86
2022-12-19T11:01:12.295Z,1.91
2022-12-19T11:03:41.807Z,1.94
2022-12-19T11:06:29.399Z,1.99
2022-12-19T11:09:12.675Z,2.02
2022-12-19T11:14:23.877Z,2.06
2022-12-19T11:18:38.529Z,2.09
2022-12-19T11:23:07.197Z,2.15
2022-12-19T11:29:32.361Z,2.22
2022-12-19T11:29:39.168Z,2.17
2022-12-19T11:30:05.578Z,2.25
2022-12-19T11:30:39.086Z,2.29
2022-12-19T11:34:35.668Z,2.32
2022-12-19T11:37:02.845Z,2.36
2022-12-19T11:39:40.528Z,2.40
2022-12-19T11:42:07.465Z,2.43
2022-12-19T11:44:45.374Z,2.43
2022-12-19T11:47:20.617Z,2.48
2022-12-19T11:49:54.574Z,2.47
2022-12-19T11:55:33.794Z,2.52
2022-12-19T11:58:01.385Z,2.57
2022-12-19T12:00:29.600Z,2.61
2022-12-19T12:03:12.668Z,2.64
2022-12-19T12:05:49.605Z,2.63
2022-12-19T12:11:29.781Z,2.65
2022-12-19T12:18:13.622Z,2.70
2022-12-19T12:26:15.909Z,2.71
2022-12-19T12:31:02.136Z,2.79
2022-12-19T12:31:08.295Z,2.78
2022-12-19T12:31:10.852Z,2.76
2022-12-19T12:31:42.235Z,2.85
2022-12-19T12:31:53.471Z,2.82
2022-12-19T12:35:47.063Z,2.85
2022-12-19T12:38:00.386Z,2.91
2022-12-19T12:38:47.125Z,2.89
2022-12-19T12:41:42.217Z,2.93
2022-12-19T12:44:12.150Z,2.98
2022-12-19T12:46:56.851Z,2.97
2022-12-19T12:49:29.859Z,3.03
2022-12-19T12:52:03.781Z,3.03
2022-12-19T12:54:36.513Z,3.05
2022-12-19T12:57:04.068Z,3.08
2022-12-19T12:59:31.274Z,3.11
2022-12-19T13:02:09.921Z,3.09
2022-12-19T13:04:54.007Z,3.12
2022-12-19T13:07:40.007Z,3.16
2022-12-19T13:10:16.272Z,3.19
2022-12-19T13:12:59.821Z,3.19
2022-12-19T13:15:30.396Z,3.23
2022-12-19T13:17:57.448Z,3.25
2022-12-19T13:20:27.870Z,3.24
2022-12-19T13:22:58.548Z,3.29
2022-12-19T13:25:34.888Z,3.29
2022-12-19T13:28:02.233Z,3.30
2022-12-19T13:30:29.975Z,3.32
2022-12-19T13:32:57.829Z,3.33
2022-12-19T13:36:21.347Z,3.37
2022-12-19T13:39:51.735Z,3.43
2022-12-19T13:41:49.445Z,3.42
2022-12-19T13:44:21.351Z,3.43
2022-12-19T13:46:52.710Z,3.44
2022-12-19T13:49:34.659Z,3.47
2022-12-19T13:52:04.421Z,3.48
2022-12-19T13:54:34.842Z,3.50
2022-12-19T13:57:09.172Z,3.55
2022-12-19T13:59:38.200Z,3.56
2022-12-19T14:02:15.260Z,3.61
2022-12-19T14:04:44.127Z,3.63
2022-12-19T14:07:36.174Z,3.66
2022-12-19T14:11:33.080Z,3.69
2022-12-19T14:13:52.029Z,3.74
2022-12-19T14:16:19.948Z,3.78
2022-12-19T14:18:56.146Z,3.81
2022-12-19T14:22:04.927Z,3.82
2022-12-19T14:24:15.030Z,3.85
2022-12-19T14:28:20.205Z,3.84
2022-12-19T14:30:28.244Z,3.87
2022-12-19T14:33:22.149Z,3.88
2022-12-19T14:36:05.007Z,3.92
2022-12-19T14:39:21.194Z,3.93
2022-12-19T14:41:07.570Z,3.97
2022-12-19T14:49:58.030Z,4.00
2022-12-19T14:54:03.817Z,4.02
2022-12-19T14:54:15.507Z,4.04
2022-12-19T14:54:30.492Z,4.08
2022-12-19T14:56:08.827Z,4.05
2022-12-19T14:58:52.226Z,4.12
2022-12-19T15:01:11.016Z,4.17
2022-12-19T15:04:33.706Z,4.19
2022-12-19T15:07:07.491Z,4.26
2022-12-19T15:10:59.328Z,4.31
2022-12-19T15:14:49.362Z,4.36
2022-12-19T15:15:40.937Z,4.41
2022-12-19T15:18:26.577Z,4.47
2022-12-19T15:20:56.056Z,4.52
2022-12-19T15:23:23.402Z,4.52
2022-12-19T15:26:07.870Z,4.55
2022-12-19T15:28:49.741Z,4.61
2022-12-19T15:31:17.160Z,4.63
2022-12-19T15:34:14.233Z,4.65
2022-12-19T15:36:30.852Z,4.69
2022-12-19T15:38:57.766Z,4.72
2022-12-19T15:41:25.612Z,4.73
2022-12-19T15:44:03.685Z,4.73
2022-12-19T15:46:31.843Z,4.77
2022-12-19T15:48:58.758Z,4.77
2022-12-19T15:51:27.742Z,4.81
2022-12-19T15:54:04.144Z,4.80
2022-12-19T15:56:47.236Z,4.78
2022-12-19T15:59:20.360Z,4.80
2022-12-19T16:01:47.385Z,4.82
2022-12-19T16:04:16.892Z,4.83
2022-12-19T16:06:43.833Z,4.85
2022-12-19T16:09:24.854Z,4.88
2022-12-19T16:11:55.647Z,4.89
2022-12-19T16:14:22.777Z,4.92
2022-12-19T16:16:52.160Z,4.95
2022-12-19T16:19:30.209Z,4.95
2022-12-19T16:22:00.768Z,4.99
2022-12-19T16:24:29.960Z,5.02
2022-12-19T16:26:58.891Z,5.03
2022-12-19T16:29:28.361Z,5.04
2022-12-19T16:31:56.169Z,5.07
2022-12-19T16:34:24.235Z,5.10
2022-12-19T16:36:51.177Z,5.13
2022-12-19T16:39:18.178Z,5.19
2022-12-19T16:41:50.149Z,5.20
2022-12-19T16:44:20.685Z,5.17
2022-12-19T16:46:50.910Z,5.13
2022-12-19T16:49:24.623Z,5.15
2022-12-19T16:51:54.222Z,5.15
2022-12-19T16:54:21.015Z,5.12
2022-12-19T16:56:52.490Z,5.09
2022-12-19T16:59:19.724Z,5.09
2022-12-19T17:01:47.481Z,5.04
2022-12-19T17:04:16.445Z,5.03
2022-12-19T17:06:43.808Z,5.05
2022-12-19T17:09:15.747Z,5.04
2022-12-19T17:11:48.207Z,5.04
2022-12-19T17:14:17.785Z,5.02
2022-12-19T17:16:45.019Z,5.03
2022-12-19T17:19:32.071Z,5.01
2022-12-19T17:21:58.972Z,5.04
2022-12-19T17:24:29.336Z,5.05
2022-12-19T17:26:56.184Z,5.04
2022-12-19T17:29:26.437Z,5.00
2022-12-19T17:31:55.535Z,5.10
2022-12-19T17:34:26.861Z,5.10
2022-12-19T17:36:53.936Z,5.15
2022-12-19T17:39:22.471Z,5.18
2022-12-19T17:41:49.939Z,5.18
2022-12-19T17:44:17.384Z,5.22
2022-12-19T17:46:45.280Z,5.25
2022-12-19T17:49:16.546Z,5.31
2022-12-19T17:51:46.475Z,5.34
2022-12-19T17:54:13.972Z,5.37
2022-12-19T17:56:40.778Z,5.43
2022-12-19T17:59:07.529Z,5.47
2022-12-19T18:01:34.805Z,5.48
2022-12-19T18:04:01.794Z,5.52
2022-12-19T18:06:28.837Z,5.52
2022-12-19T18:08:55.626Z,5.56
2022-12-19T18:11:24.015Z,5.57
2022-12-19T18:13:51.199Z,5.56
2022-12-19T18:16:20.965Z,5.59
2022-12-19T18:18:48.296Z,5.58
2022-12-19T18:21:16.139Z,5.59
2022-12-19T18:23:43.561Z,5.60
2022-12-19T18:26:11.183Z,5.61
2022-12-19T18:28:38.890Z,5.60
2022-12-19T18:31:16.313Z,5.60
2022-12-19T18:33:45.376Z,5.61
2022-12-19T18:36:20.201Z,5.56
2022-12-19T18:38:48.704Z,5.55
2022-12-19T18:41:16.864Z,5.52
2022-12-19T18:43:44.322Z,5.56
2022-12-19T18:46:15.486Z,5.57
2022-12-19T18:48:43.167Z,5.57
2022-12-19T18:51:16.636Z,5.61
2022-12-19T18:53:44.177Z,5.59
2022-12-19T18:56:11.141Z,5.57
2022-12-19T18:58:38.183Z,5.59
2022-12-19T19:01:07.040Z,5.63
2022-12-19T19:03:45.935Z,5.60
2022-12-19T19:06:37.872Z,5.61
2022-12-19T19:09:11.139Z,5.60
2022-12-19T19:11:37.961Z,5.59
2022-12-19T19:14:04.876Z,5.63
2022-12-19T19:16:32.073Z,5.66
2022-12-19T19:18:59.387Z,5.65
2022-12-19T19:21:29.227Z,5.64
2022-12-19T19:24:16.362Z,5.63
2022-12-19T19:26:43.729Z,5.62
2022-12-19T19:29:10.956Z,5.58
2022-12-19T19:31:39.388Z,5.62
2022-12-19T19:34:09.648Z,5.63
2022-12-19T19:36:38.371Z,5.61
2022-12-19T19:39:05.584Z,5.63
2022-12-19T19:41:34.312Z,5.63
2022-12-19T19:44:03.263Z,5.63
2022-12-19T19:46:32.713Z,5.66
2022-12-19T19:49:00.171Z,5.68
2022-12-19T19:51:29.299Z,5.64
2022-12-19T19:53:56.665Z,5.63
2022-12-19T19:56:23.597Z,5.64
2022-12-19T19:58:50.429Z,5.67
2022-12-19T20:01:17.758Z,5.64
2022-12-19T20:03:45.180Z,5.65
2022-12-19T20:06:12.634Z,5.68
2022-12-19T20:08:41.001Z,5.67
2022-12-19T20:11:09.242Z,5.65
2022-12-19T20:13:36.302Z,5.68
2022-12-19T20:16:07.226Z,5.68
2022-12-19T20:18:34.775Z,5.67
2022-12-19T20:21:01.947Z,5.65
2022-12-19T20:23:29.052Z,5.63
2022-12-19T20:26:00.614Z,5.61
2022-12-19T20:28:27.491Z,5.63
2022-12-19T20:30:54.646Z,5.63
2022-12-19T20:33:21.482Z,5.64
2022-12-19T20:35:48.334Z,5.69
2022-12-19T20:38:17.384Z,5.67
2022-12-19T20:40:45.344Z,5.67
2022-12-19T20:43:12.426Z,5.67
2022-12-19T20:45:39.257Z,5.67
2022-12-19T20:48:06.109Z,5.69
2022-12-19T20:50:35.888Z,5.69
2022-12-19T20:53:05.030Z,5.67
2022-12-19T20:55:31.896Z,5.65
2022-12-19T20:57:58.793Z,5.67
2022-12-19T21:00:25.837Z,5.66
2022-12-19T21:03:26.355Z,5.65
2022-12-19T21:05:41.981Z,5.65
2022-12-19T21:08:08.932Z,5.64
2022-12-19T21:10:35.853Z,5.61
2022-12-19T21:13:02.769Z,5.61
2022-12-19T21:15:31.468Z,5.64
2022-12-19T21:17:58.277Z,5.65
2022-12-19T21:20:29.483Z,5.68
2022-12-19T21:23:00.801Z,5.71
2022-12-19T21:25:27.668Z,5.71
2022-12-19T21:27:54.471Z,5.71
2022-12-19T21:30:22.163Z,5.70
2022-12-19T21:32:49.155Z,5.65
2022-12-19T21:35:15.960Z,5.62
2022-12-19T21:37:44.229Z,5.64
2022-12-19T21:40:11.279Z,5.63
2022-12-19T21:42:38.097Z,5.64
2022-12-19T21:45:05.348Z,5.65
2022-12-19T21:47:35.203Z,5.66
2022-12-19T21:50:02.281Z,5.63
2022-12-19T21:52:29.119Z,5.59
2022-12-19T21:54:55.891Z,5.59
2022-12-19T21:57:22.745Z,5.54
2022-12-19T21:59:49.686Z,5.53
2022-12-19T22:02:16.873Z,5.51
2022-12-19T22:04:43.994Z,5.47
2022-12-19T22:07:10.835Z,5.45
2022-12-19T22:09:37.633Z,5.43
2022-12-19T22:12:04.693Z,5.47
2022-12-19T22:14:31.664Z,5.47
2022-12-19T22:16:59.289Z,5.46
2022-12-19T22:19:26.115Z,5.43
2022-12-19T22:21:52.946Z,5.41
2022-12-19T22:24:20.231Z,5.42
2022-12-19T22:26:47.155Z,5.40
2022-12-19T22:29:15.108Z,5.39
2022-12-19T22:31:42.602Z,5.37
2022-12-19T22:34:11.015Z,5.40
2022-12-19T22:36:38.814Z,5.39
2022-12-19T22:39:07.099Z,5.36
2022-12-19T22:41:34.885Z,5.32
2022-12-19T22:44:02.058Z,5.32
2022-12-19T22:46:31.074Z,5.35
2022-12-19T22:48:59.189Z,5.33
2022-12-19T22:51:26.613Z,5.30
2022-12-19T22:53:53.803Z,5.28
2022-12-19T22:56:21.936Z,5.30
2022-12-19T22:58:49.626Z,5.30
2022-12-19T23:01:19.270Z,5.29
2022-12-19T23:03:47.144Z,5.31
2022-12-19T23:06:14.773Z,5.33
2022-12-19T23:08:42.117Z,5.38
2022-12-19T23:11:10.841Z,5.41
2022-12-19T23:13:41.499Z,5.41
2022-12-19T23:16:08.437Z,5.42
2022-12-19T23:18:35.257Z,5.40
2022-12-19T23:21:09.337Z,5.43
2022-12-19T23:23:40.285Z,5.41
2022-12-19T23:26:13.430Z,5.41
2022-12-19T23:28:42.846Z,5.43
2022-12-19T23:31:10.752Z,5.46
2022-12-19T23:33:37.680Z,5.47
2022-12-19T23:36:05.059Z,5.47
2022-12-19T23:38:32.272Z,5.47
2022-12-19T23:41:06.584Z,5.46
2022-12-19T23:43:34.333Z,5.47
2022-12-19T23:46:07.216Z,5.47
2022-12-19T23:48:34.145Z,5.48
2022-12-19T23:51:02.527Z,5.45
2022-12-19T23:53:29.842Z,5.44
2022-12-19T23:55:56.643Z,5.44
2022-12-19T23:58:24.778Z,5.41
